Terminal Aerodrome Forecast
Issued by NWS

Home | Current Version | Previous Version | Text Only | Print | Product List | Glossary On
Versions: 1 2 3 4 5 6 7 8 9 10 11 12 13 14 15 16 17
000
FTUS42 KILM 020500
TAFCRE
TAF
KCRE 020532Z 0206/0306 26002KT 3SM BR OVC003
      TEMPO 0208/0212 3/4SM BR OVC002
     FM021500 29007KT P6SM BKN020 BKN050
     FM022100 03007KT 5SM BR BKN012=

USA.gov is the U.S. government's official web portal to all federal, state and local government web resources and services.